sensor_id;sensor_type;location;lat;lon;timestamp;P1;durP1;ratioP1;P2;durP2;ratioP2
79124;SDS011;68527;39.470;-0.376;2023-07-31T00:01:21;3.60;;;2.00;;
79124;SDS011;68527;39.470;-0.376;2023-07-31T00:03:46;3.60;;;1.80;;
79124;SDS011;68527;39.470;-0.376;2023-07-31T00:06:12;3.70;;;2.10;;
79124;SDS011;68527;39.470;-0.376;2023-07-31T00:08:38;3.80;;;2.00;;
79124;SDS011;68527;39.470;-0.376;2023-07-31T00:11:03;4.80;;;1.80;;
79124;SDS011;68527;39.470;-0.376;2023-07-31T00:13:29;2.80;;;1.80;;
79124;SDS011;68527;39.470;-0.376;2023-07-31T00:15:54;4.10;;;1.70;;
79124;SDS011;68527;39.470;-0.376;2023-07-31T00:18:20;3.20;;;2.10;;
79124;SDS011;68527;39.470;-0.376;2023-07-31T00:20:46;2.90;;;1.70;;
79124;SDS011;68527;39.470;-0.376;2023-07-31T00:23:11;2.70;;;1.60;;
79124;SDS011;68527;39.470;-0.376;2023-07-31T00:25:37;3.90;;;2.20;;
79124;SDS011;68527;39.470;-0.376;2023-07-31T00:28:02;3.20;;;1.70;;
79124;SDS011;68527;39.470;-0.376;2023-07-31T00:30:28;3.60;;;2.40;;
79124;SDS011;68527;39.470;-0.376;2023-07-31T00:32:54;3.10;;;1.80;;
79124;SDS011;68527;39.470;-0.376;2023-07-31T00:35:19;3.00;;;2.10;;
79124;SDS011;68527;39.470;-0.376;2023-07-31T00:37:45;4.50;;;2.10;;
79124;SDS011;68527;39.470;-0.376;2023-07-31T00:40:10;3.00;;;2.00;;
79124;SDS011;68527;39.470;-0.376;2023-07-31T00:42:36;3.40;;;1.60;;
79124;SDS011;68527;39.470;-0.376;2023-07-31T00:45:02;3.50;;;1.90;;
79124;SDS011;68527;39.470;-0.376;2023-07-31T00:47:28;2.90;;;1.90;;
79124;SDS011;68527;39.470;-0.376;2023-07-31T00:49:53;2.90;;;1.40;;
79124;SDS011;68527;39.470;-0.376;2023-07-31T00:52:19;2.20;;;1.90;;
79124;SDS011;68527;39.470;-0.376;2023-07-31T00:54:45;3.80;;;2.00;;
79124;SDS011;68527;39.470;-0.376;2023-07-31T00:57:11;2.70;;;1.60;;
79124;SDS011;68527;39.470;-0.376;2023-07-31T00:59:36;2.70;;;1.80;;
79124;SDS011;68527;39.470;-0.376;2023-07-31T01:02:02;2.20;;;1.60;;
79124;SDS011;68527;39.470;-0.376;2023-07-31T01:04:28;2.90;;;1.70;;
79124;SDS011;68527;39.470;-0.376;2023-07-31T01:12:32;3.40;;;1.90;;
79124;SDS011;68527;39.470;-0.376;2023-07-31T01:15:06;2.40;;;1.80;;
79124;SDS011;68527;39.470;-0.376;2023-07-31T01:17:36;3.90;;;2.20;;
79124;SDS011;68527;39.470;-0.376;2023-07-31T01:20:15;2.80;;;1.70;;
79124;SDS011;68527;39.470;-0.376;2023-07-31T01:28:50;2.50;;;1.70;;
79124;SDS011;68527;39.470;-0.376;2023-07-31T01:31:12;2.50;;;1.80;;
79124;SDS011;68527;39.470;-0.376;2023-07-31T01:33:41;2.50;;;2.00;;
79124;SDS011;68527;39.470;-0.376;2023-07-31T01:36:06;3.10;;;1.90;;
79124;SDS011;68527;39.470;-0.376;2023-07-31T01:38:33;3.50;;;2.00;;
79124;SDS011;68527;39.470;-0.376;2023-07-31T01:40:58;3.10;;;2.00;;
79124;SDS011;68527;39.470;-0.376;2023-07-31T01:43:24;2.70;;;1.70;;
79124;SDS011;68527;39.470;-0.376;2023-07-31T01:45:49;4.60;;;2.10;;
79124;SDS011;68527;39.470;-0.376;2023-07-31T01:48:15;2.50;;;1.80;;
79124;SDS011;68527;39.470;-0.376;2023-07-31T01:50:41;3.10;;;2.00;;
79124;SDS011;68527;39.470;-0.376;2023-07-31T01:53:06;3.30;;;2.10;;
79124;SDS011;68527;39.470;-0.376;2023-07-31T01:55:32;3.10;;;1.90;;
79124;SDS011;68527;39.470;-0.376;2023-07-31T01:57:57;4.30;;;1.60;;
79124;SDS011;68527;39.470;-0.376;2023-07-31T02:00:23;3.40;;;1.70;;
79124;SDS011;68527;39.470;-0.376;2023-07-31T02:02:48;3.80;;;2.00;;
79124;SDS011;68527;39.470;-0.376;2023-07-31T02:05:14;2.70;;;1.80;;
79124;SDS011;68527;39.470;-0.376;2023-07-31T02:07:39;3.00;;;1.90;;
79124;SDS011;68527;39.470;-0.376;2023-07-31T02:10:05;3.40;;;1.90;;
79124;SDS011;68527;39.470;-0.376;2023-07-31T02:12:31;2.60;;;1.80;;
79124;SDS011;68527;39.470;-0.376;2023-07-31T02:14:58;2.40;;;1.70;;
79124;SDS011;68527;39.470;-0.376;2023-07-31T02:17:24;3.70;;;1.90;;
79124;SDS011;68527;39.470;-0.376;2023-07-31T02:19:49;2.90;;;1.60;;
79124;SDS011;68527;39.470;-0.376;2023-07-31T02:22:15;2.90;;;2.00;;
79124;SDS011;68527;39.470;-0.376;2023-07-31T02:24:40;3.10;;;1.70;;
79124;SDS011;68527;39.470;-0.376;2023-07-31T02:27:06;3.30;;;1.70;;
79124;SDS011;68527;39.470;-0.376;2023-07-31T02:29:31;2.70;;;1.80;;
79124;SDS011;68527;39.470;-0.376;2023-07-31T02:31:57;2.60;;;1.90;;
79124;SDS011;68527;39.470;-0.376;2023-07-31T02:34:23;4.20;;;1.80;;
79124;SDS011;68527;39.470;-0.376;2023-07-31T02:36:48;3.80;;;1.50;;
79124;SDS011;68527;39.470;-0.376;2023-07-31T02:39:14;3.10;;;1.50;;
79124;SDS011;68527;39.470;-0.376;2023-07-31T02:41:39;3.90;;;2.00;;
79124;SDS011;68527;39.470;-0.376;2023-07-31T02:44:05;2.50;;;1.60;;
79124;SDS011;68527;39.470;-0.376;2023-07-31T02:46:30;3.80;;;1.90;;
79124;SDS011;68527;39.470;-0.376;2023-07-31T02:48:56;2.20;;;1.30;;
79124;SDS011;68527;39.470;-0.376;2023-07-31T02:51:22;2.40;;;1.60;;
79124;SDS011;68527;39.470;-0.376;2023-07-31T02:53:47;2.80;;;1.50;;
79124;SDS011;68527;39.470;-0.376;2023-07-31T02:56:13;4.10;;;2.00;;
79124;SDS011;68527;39.470;-0.376;2023-07-31T02:58:38;2.50;;;1.60;;
79124;SDS011;68527;39.470;-0.376;2023-07-31T03:01:04;2.10;;;1.50;;
79124;SDS011;68527;39.470;-0.376;2023-07-31T03:03:30;3.40;;;1.90;;
79124;SDS011;68527;39.470;-0.376;2023-07-31T03:05:55;2.50;;;1.70;;
79124;SDS011;68527;39.470;-0.376;2023-07-31T03:08:21;2.80;;;1.90;;
79124;SDS011;68527;39.470;-0.376;2023-07-31T03:10:47;2.80;;;1.50;;
79124;SDS011;68527;39.470;-0.376;2023-07-31T03:13:12;4.90;;;1.90;;
79124;SDS011;68527;39.470;-0.376;2023-07-31T03:15:38;4.90;;;1.80;;
79124;SDS011;68527;39.470;-0.376;2023-07-31T03:18:03;2.30;;;1.80;;
79124;SDS011;68527;39.470;-0.376;2023-07-31T03:20:29;3.50;;;2.40;;
79124;SDS011;68527;39.470;-0.376;2023-07-31T03:22:54;2.90;;;1.70;;
79124;SDS011;68527;39.470;-0.376;2023-07-31T03:25:20;3.60;;;1.90;;
79124;SDS011;68527;39.470;-0.376;2023-07-31T03:27:45;3.80;;;1.60;;
79124;SDS011;68527;39.470;-0.376;2023-07-31T03:30:11;2.40;;;1.80;;
79124;SDS011;68527;39.470;-0.376;2023-07-31T03:32:36;2.70;;;1.70;;
79124;SDS011;68527;39.470;-0.376;2023-07-31T03:35:02;3.60;;;1.80;;
79124;SDS011;68527;39.470;-0.376;2023-07-31T03:37:28;3.20;;;1.70;;
79124;SDS011;68527;39.470;-0.376;2023-07-31T03:39:54;2.70;;;2.00;;
79124;SDS011;68527;39.470;-0.376;2023-07-31T03:42:19;2.30;;;1.60;;
79124;SDS011;68527;39.470;-0.376;2023-07-31T03:44:45;2.80;;;1.50;;
79124;SDS011;68527;39.470;-0.376;2023-07-31T03:47:10;3.10;;;1.80;;
79124;SDS011;68527;39.470;-0.376;2023-07-31T03:49:36;4.70;;;1.90;;
79124;SDS011;68527;39.470;-0.376;2023-07-31T03:52:02;3.30;;;1.70;;
79124;SDS011;68527;39.470;-0.376;2023-07-31T03:54:28;3.50;;;1.60;;
79124;SDS011;68527;39.470;-0.376;2023-07-31T03:56:53;3.60;;;1.90;;
79124;SDS011;68527;39.470;-0.376;2023-07-31T03:59:18;3.30;;;1.80;;
79124;SDS011;68527;39.470;-0.376;2023-07-31T04:01:44;1.70;;;1.50;;
79124;SDS011;68527;39.470;-0.376;2023-07-31T04:04:10;2.60;;;2.00;;
79124;SDS011;68527;39.470;-0.376;2023-07-31T04:06:35;3.80;;;2.10;;
79124;SDS011;68527;39.470;-0.376;2023-07-31T04:09:01;2.60;;;1.70;;
79124;SDS011;68527;39.470;-0.376;2023-07-31T04:11:28;3.20;;;1.80;;
79124;SDS011;68527;39.470;-0.376;2023-07-31T04:13:53;2.50;;;1.70;;
79124;SDS011;68527;39.470;-0.376;2023-07-31T04:16:19;3.50;;;1.70;;
79124;SDS011;68527;39.470;-0.376;2023-07-31T04:18:44;3.30;;;1.50;;
79124;SDS011;68527;39.470;-0.376;2023-07-31T04:21:10;3.30;;;1.50;;
79124;SDS011;68527;39.470;-0.376;2023-07-31T04:23:35;2.90;;;1.70;;
79124;SDS011;68527;39.470;-0.376;2023-07-31T04:26:01;2.40;;;1.50;;
79124;SDS011;68527;39.470;-0.376;2023-07-31T04:28:26;3.80;;;1.90;;
79124;SDS011;68527;39.470;-0.376;2023-07-31T04:30:52;4.00;;;2.00;;
79124;SDS011;68527;39.470;-0.376;2023-07-31T04:33:18;3.10;;;2.00;;
79124;SDS011;68527;39.470;-0.376;2023-07-31T04:35:49;3.70;;;1.80;;
79124;SDS011;68527;39.470;-0.376;2023-07-31T04:38:17;2.30;;;1.60;;
79124;SDS011;68527;39.470;-0.376;2023-07-31T04:40:44;2.80;;;1.70;;
79124;SDS011;68527;39.470;-0.376;2023-07-31T04:43:09;3.30;;;2.00;;
79124;SDS011;68527;39.470;-0.376;2023-07-31T04:45:35;6.70;;;2.20;;
79124;SDS011;68527;39.470;-0.376;2023-07-31T04:48:01;3.10;;;1.70;;
79124;SDS011;68527;39.470;-0.376;2023-07-31T04:50:26;3.90;;;1.80;;
79124;SDS011;68527;39.470;-0.376;2023-07-31T04:52:52;2.50;;;1.80;;
79124;SDS011;68527;39.470;-0.376;2023-07-31T04:55:17;2.80;;;1.80;;
79124;SDS011;68527;39.470;-0.376;2023-07-31T04:57:43;2.90;;;1.50;;
79124;SDS011;68527;39.470;-0.376;2023-07-31T05:00:09;3.70;;;1.80;;
79124;SDS011;68527;39.470;-0.376;2023-07-31T05:02:35;2.40;;;1.60;;
79124;SDS011;68527;39.470;-0.376;2023-07-31T05:05:01;2.40;;;1.70;;
79124;SDS011;68527;39.470;-0.376;2023-07-31T05:07:26;2.70;;;1.80;;
79124;SDS011;68527;39.470;-0.376;2023-07-31T05:09:52;3.40;;;1.80;;
79124;SDS011;68527;39.470;-0.376;2023-07-31T05:12:17;2.60;;;1.70;;
79124;SDS011;68527;39.470;-0.376;2023-07-31T05:14:43;2.00;;;1.40;;
79124;SDS011;68527;39.470;-0.376;2023-07-31T05:17:08;2.70;;;1.70;;
79124;SDS011;68527;39.470;-0.376;2023-07-31T05:19:34;2.30;;;1.80;;
79124;SDS011;68527;39.470;-0.376;2023-07-31T05:22:00;3.80;;;1.60;;
79124;SDS011;68527;39.470;-0.376;2023-07-31T05:24:25;3.90;;;1.90;;
79124;SDS011;68527;39.470;-0.376;2023-07-31T05:26:51;3.10;;;2.30;;
79124;SDS011;68527;39.470;-0.376;2023-07-31T05:29:16;2.50;;;1.90;;
79124;SDS011;68527;39.470;-0.376;2023-07-31T05:31:42;2.70;;;1.70;;
79124;SDS011;68527;39.470;-0.376;2023-07-31T05:34:07;2.20;;;1.40;;
79124;SDS011;68527;39.470;-0.376;2023-07-31T05:36:33;2.90;;;1.80;;
79124;SDS011;68527;39.470;-0.376;2023-07-31T05:38:58;2.70;;;2.00;;
79124;SDS011;68527;39.470;-0.376;2023-07-31T05:41:24;2.70;;;1.60;;
79124;SDS011;68527;39.470;-0.376;2023-07-31T05:43:49;2.60;;;1.90;;
79124;SDS011;68527;39.470;-0.376;2023-07-31T05:46:16;4.10;;;1.80;;
79124;SDS011;68527;39.470;-0.376;2023-07-31T05:48:42;2.90;;;1.70;;
79124;SDS011;68527;39.470;-0.376;2023-07-31T05:51:07;2.70;;;1.60;;
79124;SDS011;68527;39.470;-0.376;2023-07-31T05:53:33;3.70;;;2.10;;
79124;SDS011;68527;39.470;-0.376;2023-07-31T05:55:58;2.50;;;1.80;;
79124;SDS011;68527;39.470;-0.376;2023-07-31T05:58:24;4.10;;;2.00;;
79124;SDS011;68527;39.470;-0.376;2023-07-31T06:00:49;2.90;;;1.70;;
79124;SDS011;68527;39.470;-0.376;2023-07-31T06:03:15;2.10;;;1.40;;
79124;SDS011;68527;39.470;-0.376;2023-07-31T06:05:40;2.70;;;1.80;;
79124;SDS011;68527;39.470;-0.376;2023-07-31T06:08:06;2.60;;;1.90;;
79124;SDS011;68527;39.470;-0.376;2023-07-31T06:10:32;2.30;;;1.80;;
79124;SDS011;68527;39.470;-0.376;2023-07-31T06:12:57;3.20;;;1.60;;
79124;SDS011;68527;39.470;-0.376;2023-07-31T06:15:23;4.00;;;2.00;;
79124;SDS011;68527;39.470;-0.376;2023-07-31T06:17:48;2.50;;;1.80;;
79124;SDS011;68527;39.470;-0.376;2023-07-31T06:20:14;2.70;;;1.70;;
79124;SDS011;68527;39.470;-0.376;2023-07-31T06:22:39;3.30;;;1.80;;
79124;SDS011;68527;39.470;-0.376;2023-07-31T06:25:05;2.50;;;1.90;;
79124;SDS011;68527;39.470;-0.376;2023-07-31T06:27:31;4.00;;;1.70;;
79124;SDS011;68527;39.470;-0.376;2023-07-31T06:29:56;1.90;;;1.70;;
79124;SDS011;68527;39.470;-0.376;2023-07-31T06:32:22;3.00;;;2.00;;
79124;SDS011;68527;39.470;-0.376;2023-07-31T06:34:48;2.70;;;1.70;;
79124;SDS011;68527;39.470;-0.376;2023-07-31T06:37:13;2.20;;;1.60;;
79124;SDS011;68527;39.470;-0.376;2023-07-31T06:39:39;2.00;;;1.60;;
79124;SDS011;68527;39.470;-0.376;2023-07-31T06:42:05;3.50;;;2.30;;
79124;SDS011;68527;39.470;-0.376;2023-07-31T06:44:31;4.00;;;2.40;;
79124;SDS011;68527;39.470;-0.376;2023-07-31T06:46:56;2.90;;;2.00;;
79124;SDS011;68527;39.470;-0.376;2023-07-31T06:49:21;3.30;;;2.10;;
79124;SDS011;68527;39.470;-0.376;2023-07-31T06:51:47;2.70;;;2.20;;
79124;SDS011;68527;39.470;-0.376;2023-07-31T06:54:13;2.40;;;1.80;;
79124;SDS011;68527;39.470;-0.376;2023-07-31T06:56:38;4.50;;;2.00;;
79124;SDS011;68527;39.470;-0.376;2023-07-31T06:59:04;3.60;;;1.70;;
79124;SDS011;68527;39.470;-0.376;2023-07-31T07:01:29;3.20;;;2.10;;
79124;SDS011;68527;39.470;-0.376;2023-07-31T07:03:55;3.00;;;1.90;;
79124;SDS011;68527;39.470;-0.376;2023-07-31T07:06:21;2.50;;;1.90;;
79124;SDS011;68527;39.470;-0.376;2023-07-31T07:08:47;2.80;;;1.60;;
79124;SDS011;68527;39.470;-0.376;2023-07-31T07:11:13;2.70;;;2.00;;
79124;SDS011;68527;39.470;-0.376;2023-07-31T07:13:38;2.70;;;1.90;;
79124;SDS011;68527;39.470;-0.376;2023-07-31T07:16:04;3.00;;;1.70;;
79124;SDS011;68527;39.470;-0.376;2023-07-31T07:18:29;3.40;;;1.80;;
79124;SDS011;68527;39.470;-0.376;2023-07-31T07:20:56;3.00;;;1.90;;
79124;SDS011;68527;39.470;-0.376;2023-07-31T07:23:23;3.00;;;2.00;;
79124;SDS011;68527;39.470;-0.376;2023-07-31T07:25:49;3.70;;;2.10;;
79124;SDS011;68527;39.470;-0.376;2023-07-31T07:28:14;2.50;;;2.10;;
79124;SDS011;68527;39.470;-0.376;2023-07-31T07:30:40;4.10;;;2.20;;
79124;SDS011;68527;39.470;-0.376;2023-07-31T07:33:06;3.60;;;2.10;;
79124;SDS011;68527;39.470;-0.376;2023-07-31T07:35:35;4.30;;;2.00;;
79124;SDS011;68527;39.470;-0.376;2023-07-31T07:38:03;4.50;;;2.10;;
79124;SDS011;68527;39.470;-0.376;2023-07-31T07:40:29;3.60;;;2.10;;
79124;SDS011;68527;39.470;-0.376;2023-07-31T07:42:54;3.60;;;2.30;;
79124;SDS011;68527;39.470;-0.376;2023-07-31T07:45:20;3.00;;;2.30;;
79124;SDS011;68527;39.470;-0.376;2023-07-31T07:47:45;4.00;;;2.10;;
79124;SDS011;68527;39.470;-0.376;2023-07-31T07:50:11;3.30;;;1.90;;
79124;SDS011;68527;39.470;-0.376;2023-07-31T07:52:37;3.90;;;2.10;;
79124;SDS011;68527;39.470;-0.376;2023-07-31T07:55:03;4.30;;;2.10;;
79124;SDS011;68527;39.470;-0.376;2023-07-31T07:57:29;6.10;;;2.10;;
79124;SDS011;68527;39.470;-0.376;2023-07-31T07:59:54;4.00;;;2.00;;
79124;SDS011;68527;39.470;-0.376;2023-07-31T08:02:20;3.20;;;1.80;;
79124;SDS011;68527;39.470;-0.376;2023-07-31T08:04:46;3.90;;;2.70;;
79124;SDS011;68527;39.470;-0.376;2023-07-31T08:07:12;3.30;;;2.30;;
79124;SDS011;68527;39.470;-0.376;2023-07-31T08:09:38;4.00;;;2.10;;
79124;SDS011;68527;39.470;-0.376;2023-07-31T08:12:04;4.30;;;2.80;;
79124;SDS011;68527;39.470;-0.376;2023-07-31T08:14:30;3.90;;;2.40;;
79124;SDS011;68527;39.470;-0.376;2023-07-31T08:16:56;4.50;;;2.00;;
79124;SDS011;68527;39.470;-0.376;2023-07-31T08:19:22;3.00;;;2.10;;
79124;SDS011;68527;39.470;-0.376;2023-07-31T08:21:47;3.60;;;2.40;;
79124;SDS011;68527;39.470;-0.376;2023-07-31T08:24:13;3.20;;;2.50;;
79124;SDS011;68527;39.470;-0.376;2023-07-31T08:26:38;3.70;;;2.20;;
79124;SDS011;68527;39.470;-0.376;2023-07-31T08:29:04;3.10;;;2.00;;
79124;SDS011;68527;39.470;-0.376;2023-07-31T08:31:29;3.90;;;2.20;;
79124;SDS011;68527;39.470;-0.376;2023-07-31T08:33:55;2.70;;;2.20;;
79124;SDS011;68527;39.470;-0.376;2023-07-31T08:36:21;4.40;;;2.60;;
79124;SDS011;68527;39.470;-0.376;2023-07-31T08:38:47;2.60;;;1.90;;
79124;SDS011;68527;39.470;-0.376;2023-07-31T08:41:13;3.80;;;2.00;;
79124;SDS011;68527;39.470;-0.376;2023-07-31T08:43:38;4.40;;;2.10;;
79124;SDS011;68527;39.470;-0.376;2023-07-31T08:46:04;3.60;;;2.20;;
79124;SDS011;68527;39.470;-0.376;2023-07-31T08:48:31;3.10;;;2.00;;
79124;SDS011;68527;39.470;-0.376;2023-07-31T08:50:58;3.40;;;1.90;;
79124;SDS011;68527;39.470;-0.376;2023-07-31T08:53:23;2.70;;;1.90;;
79124;SDS011;68527;39.470;-0.376;2023-07-31T08:55:49;4.10;;;2.50;;
79124;SDS011;68527;39.470;-0.376;2023-07-31T08:58:15;3.00;;;2.10;;
79124;SDS011;68527;39.470;-0.376;2023-07-31T09:00:42;2.80;;;2.10;;
79124;SDS011;68527;39.470;-0.376;2023-07-31T09:03:11;3.40;;;1.70;;
79124;SDS011;68527;39.470;-0.376;2023-07-31T09:05:45;3.20;;;1.90;;
79124;SDS011;68527;39.470;-0.376;2023-07-31T09:08:15;3.50;;;2.10;;
79124;SDS011;68527;39.470;-0.376;2023-07-31T09:10:44;4.40;;;2.10;;
79124;SDS011;68527;39.470;-0.376;2023-07-31T09:13:13;3.60;;;2.20;;
79124;SDS011;68527;39.470;-0.376;2023-07-31T09:15:39;3.40;;;2.20;;
79124;SDS011;68527;39.470;-0.376;2023-07-31T09:18:06;4.40;;;1.90;;
79124;SDS011;68527;39.470;-0.376;2023-07-31T09:20:32;3.60;;;2.10;;
79124;SDS011;68527;39.470;-0.376;2023-07-31T09:23:06;4.60;;;2.00;;
79124;SDS011;68527;39.470;-0.376;2023-07-31T09:25:33;4.50;;;2.10;;
79124;SDS011;68527;39.470;-0.376;2023-07-31T09:27:59;3.20;;;1.80;;
79124;SDS011;68527;39.470;-0.376;2023-07-31T09:30:26;4.10;;;2.20;;
79124;SDS011;68527;39.470;-0.376;2023-07-31T09:33:00;3.70;;;1.90;;
79124;SDS011;68527;39.470;-0.376;2023-07-31T09:35:28;4.30;;;2.50;;
79124;SDS011;68527;39.470;-0.376;2023-07-31T09:37:55;3.20;;;1.90;;
79124;SDS011;68527;39.470;-0.376;2023-07-31T09:43:04;2.50;;;1.80;;
79124;SDS011;68527;39.470;-0.376;2023-07-31T09:45:33;3.00;;;1.80;;
79124;SDS011;68527;39.470;-0.376;2023-07-31T09:47:59;2.70;;;1.80;;
79124;SDS011;68527;39.470;-0.376;2023-07-31T09:50:25;3.40;;;1.80;;
79124;SDS011;68527;39.470;-0.376;2023-07-31T09:52:51;3.90;;;2.10;;
79124;SDS011;68527;39.470;-0.376;2023-07-31T09:55:17;2.80;;;2.00;;
79124;SDS011;68527;39.470;-0.376;2023-07-31T09:57:44;3.80;;;2.00;;
79124;SDS011;68527;39.470;-0.376;2023-07-31T10:00:12;4.20;;;1.70;;
79124;SDS011;68527;39.470;-0.376;2023-07-31T10:02:38;2.80;;;2.10;;
79124;SDS011;68527;39.470;-0.376;2023-07-31T10:05:05;2.70;;;1.90;;
79124;SDS011;68527;39.470;-0.376;2023-07-31T10:07:34;4.30;;;1.60;;
79124;SDS011;68527;39.470;-0.376;2023-07-31T10:10:03;3.60;;;1.90;;
79124;SDS011;68527;39.470;-0.376;2023-07-31T10:12:31;4.20;;;1.70;;
79124;SDS011;68527;39.470;-0.376;2023-07-31T10:14:57;4.20;;;2.30;;
79124;SDS011;68527;39.470;-0.376;2023-07-31T10:17:25;3.80;;;2.00;;
79124;SDS011;68527;39.470;-0.376;2023-07-31T10:19:51;4.30;;;1.90;;
79124;SDS011;68527;39.470;-0.376;2023-07-31T10:22:18;3.70;;;2.00;;
79124;SDS011;68527;39.470;-0.376;2023-07-31T10:24:45;2.90;;;2.00;;
79124;SDS011;68527;39.470;-0.376;2023-07-31T10:27:11;2.90;;;1.80;;
79124;SDS011;68527;39.470;-0.376;2023-07-31T10:29:37;3.90;;;1.80;;
79124;SDS011;68527;39.470;-0.376;2023-07-31T10:32:04;2.20;;;1.60;;
79124;SDS011;68527;39.470;-0.376;2023-07-31T10:34:33;2.40;;;1.50;;
79124;SDS011;68527;39.470;-0.376;2023-07-31T10:39:57;5.20;;;2.10;;
79124;SDS011;68527;39.470;-0.376;2023-07-31T10:42:28;3.70;;;2.10;;
79124;SDS011;68527;39.470;-0.376;2023-07-31T10:47:38;3.60;;;1.80;;
79124;SDS011;68527;39.470;-0.376;2023-07-31T10:50:21;4.00;;;1.80;;
79124;SDS011;68527;39.470;-0.376;2023-07-31T10:52:49;4.00;;;1.90;;
79124;SDS011;68527;39.470;-0.376;2023-07-31T10:58:09;4.10;;;2.20;;
79124;SDS011;68527;39.470;-0.376;2023-07-31T11:00:37;3.40;;;2.00;;
79124;SDS011;68527;39.470;-0.376;2023-07-31T11:03:04;3.60;;;2.00;;
79124;SDS011;68527;39.470;-0.376;2023-07-31T11:11:10;4.30;;;2.20;;
79124;SDS011;68527;39.470;-0.376;2023-07-31T11:13:47;4.50;;;2.10;;
79124;SDS011;68527;39.470;-0.376;2023-07-31T11:16:18;3.30;;;1.90;;
79124;SDS011;68527;39.470;-0.376;2023-07-31T11:18:48;2.80;;;1.70;;
79124;SDS011;68527;39.470;-0.376;2023-07-31T11:21:17;3.20;;;1.60;;
79124;SDS011;68527;39.470;-0.376;2023-07-31T11:24:02;2.50;;;1.70;;
79124;SDS011;68527;39.470;-0.376;2023-07-31T11:26:28;4.40;;;2.00;;
79124;SDS011;68527;39.470;-0.376;2023-07-31T11:28:55;4.50;;;2.00;;
79124;SDS011;68527;39.470;-0.376;2023-07-31T11:31:21;3.30;;;1.80;;
79124;SDS011;68527;39.470;-0.376;2023-07-31T11:33:47;3.60;;;2.10;;
79124;SDS011;68527;39.470;-0.376;2023-07-31T11:36:16;2.80;;;2.20;;
79124;SDS011;68527;39.470;-0.376;2023-07-31T11:38:43;3.50;;;2.50;;
79124;SDS011;68527;39.470;-0.376;2023-07-31T11:41:10;3.90;;;1.90;;
79124;SDS011;68527;39.470;-0.376;2023-07-31T11:43:35;4.20;;;1.90;;
79124;SDS011;68527;39.470;-0.376;2023-07-31T11:46:03;3.60;;;2.20;;
79124;SDS011;68527;39.470;-0.376;2023-07-31T11:48:32;5.60;;;2.00;;
79124;SDS011;68527;39.470;-0.376;2023-07-31T11:51:04;4.20;;;1.90;;
79124;SDS011;68527;39.470;-0.376;2023-07-31T11:53:38;4.60;;;2.30;;
79124;SDS011;68527;39.470;-0.376;2023-07-31T11:56:06;3.70;;;2.20;;
79124;SDS011;68527;39.470;-0.376;2023-07-31T11:58:33;4.10;;;2.00;;
79124;SDS011;68527;39.470;-0.376;2023-07-31T12:00:59;3.00;;;2.10;;
79124;SDS011;68527;39.470;-0.376;2023-07-31T12:03:25;3.80;;;1.90;;
79124;SDS011;68527;39.470;-0.376;2023-07-31T12:05:52;3.60;;;2.00;;
79124;SDS011;68527;39.470;-0.376;2023-07-31T12:08:20;4.10;;;2.40;;
79124;SDS011;68527;39.470;-0.376;2023-07-31T12:10:46;3.80;;;2.30;;
79124;SDS011;68527;39.470;-0.376;2023-07-31T12:13:19;5.00;;;2.40;;
79124;SDS011;68527;39.470;-0.376;2023-07-31T12:15:47;4.40;;;2.60;;
79124;SDS011;68527;39.470;-0.376;2023-07-31T12:18:13;5.60;;;2.60;;
79124;SDS011;68527;39.470;-0.376;2023-07-31T12:20:49;4.90;;;2.40;;
79124;SDS011;68527;39.470;-0.376;2023-07-31T12:23:19;2.90;;;2.10;;
79124;SDS011;68527;39.470;-0.376;2023-07-31T12:26:00;5.40;;;2.20;;
79124;SDS011;68527;39.470;-0.376;2023-07-31T12:28:28;3.00;;;2.20;;
79124;SDS011;68527;39.470;-0.376;2023-07-31T12:30:56;3.90;;;2.30;;
79124;SDS011;68527;39.470;-0.376;2023-07-31T12:33:24;3.60;;;2.30;;
79124;SDS011;68527;39.470;-0.376;2023-07-31T12:35:55;6.70;;;2.20;;
79124;SDS011;68527;39.470;-0.376;2023-07-31T12:38:20;4.50;;;2.30;;
79124;SDS011;68527;39.470;-0.376;2023-07-31T12:40:46;3.80;;;2.30;;
79124;SDS011;68527;39.470;-0.376;2023-07-31T12:43:13;5.00;;;2.70;;
79124;SDS011;68527;39.470;-0.376;2023-07-31T12:45:38;3.60;;;2.20;;
79124;SDS011;68527;39.470;-0.376;2023-07-31T12:48:04;4.70;;;2.20;;
79124;SDS011;68527;39.470;-0.376;2023-07-31T12:50:29;4.80;;;2.80;;
79124;SDS011;68527;39.470;-0.376;2023-07-31T12:52:55;3.90;;;2.60;;
79124;SDS011;68527;39.470;-0.376;2023-07-31T12:55:22;6.40;;;2.80;;
79124;SDS011;68527;39.470;-0.376;2023-07-31T12:57:48;4.80;;;2.70;;
79124;SDS011;68527;39.470;-0.376;2023-07-31T13:00:14;5.10;;;2.90;;
79124;SDS011;68527;39.470;-0.376;2023-07-31T13:02:39;3.70;;;2.50;;
79124;SDS011;68527;39.470;-0.376;2023-07-31T13:05:05;5.50;;;2.50;;
79124;SDS011;68527;39.470;-0.376;2023-07-31T13:07:31;4.40;;;2.50;;
79124;SDS011;68527;39.470;-0.376;2023-07-31T13:09:57;4.60;;;2.70;;
79124;SDS011;68527;39.470;-0.376;2023-07-31T13:12:23;3.50;;;2.40;;
79124;SDS011;68527;39.470;-0.376;2023-07-31T13:14:48;4.50;;;2.60;;
79124;SDS011;68527;39.470;-0.376;2023-07-31T13:17:13;3.50;;;2.50;;
79124;SDS011;68527;39.470;-0.376;2023-07-31T13:19:39;6.30;;;2.60;;
79124;SDS011;68527;39.470;-0.376;2023-07-31T13:22:05;4.60;;;2.50;;
79124;SDS011;68527;39.470;-0.376;2023-07-31T13:24:30;6.30;;;2.90;;
79124;SDS011;68527;39.470;-0.376;2023-07-31T13:26:56;5.60;;;2.70;;
79124;SDS011;68527;39.470;-0.376;2023-07-31T13:29:22;5.10;;;2.80;;
79124;SDS011;68527;39.470;-0.376;2023-07-31T13:31:49;5.90;;;2.70;;
79124;SDS011;68527;39.470;-0.376;2023-07-31T13:34:14;4.60;;;2.70;;
79124;SDS011;68527;39.470;-0.376;2023-07-31T13:36:40;7.90;;;2.60;;
79124;SDS011;68527;39.470;-0.376;2023-07-31T13:39:06;6.10;;;2.80;;
79124;SDS011;68527;39.470;-0.376;2023-07-31T13:41:32;6.60;;;3.10;;
79124;SDS011;68527;39.470;-0.376;2023-07-31T13:43:58;6.50;;;2.80;;
79124;SDS011;68527;39.470;-0.376;2023-07-31T13:46:23;5.40;;;2.80;;
79124;SDS011;68527;39.470;-0.376;2023-07-31T13:48:50;5.20;;;3.10;;
79124;SDS011;68527;39.470;-0.376;2023-07-31T13:51:16;4.50;;;3.00;;
79124;SDS011;68527;39.470;-0.376;2023-07-31T13:53:42;5.70;;;2.70;;
79124;SDS011;68527;39.470;-0.376;2023-07-31T13:56:07;7.50;;;2.80;;
79124;SDS011;68527;39.470;-0.376;2023-07-31T13:58:33;6.00;;;3.10;;
79124;SDS011;68527;39.470;-0.376;2023-07-31T14:00:58;3.90;;;2.80;;
79124;SDS011;68527;39.470;-0.376;2023-07-31T14:03:24;5.90;;;2.80;;
79124;SDS011;68527;39.470;-0.376;2023-07-31T14:05:51;5.30;;;2.80;;
79124;SDS011;68527;39.470;-0.376;2023-07-31T14:08:17;4.20;;;2.60;;
79124;SDS011;68527;39.470;-0.376;2023-07-31T14:10:42;4.90;;;3.20;;
79124;SDS011;68527;39.470;-0.376;2023-07-31T14:13:08;4.80;;;2.80;;
79124;SDS011;68527;39.470;-0.376;2023-07-31T14:15:33;4.50;;;3.20;;
79124;SDS011;68527;39.470;-0.376;2023-07-31T14:18:01;5.00;;;2.90;;
79124;SDS011;68527;39.470;-0.376;2023-07-31T14:20:27;5.40;;;2.90;;
79124;SDS011;68527;39.470;-0.376;2023-07-31T14:22:53;6.30;;;3.00;;
79124;SDS011;68527;39.470;-0.376;2023-07-31T14:25:19;5.10;;;2.60;;
79124;SDS011;68527;39.470;-0.376;2023-07-31T14:27:45;6.20;;;3.10;;
79124;SDS011;68527;39.470;-0.376;2023-07-31T14:30:11;6.70;;;3.00;;
79124;SDS011;68527;39.470;-0.376;2023-07-31T14:32:36;4.80;;;2.80;;
79124;SDS011;68527;39.470;-0.376;2023-07-31T14:35:02;5.40;;;2.90;;
79124;SDS011;68527;39.470;-0.376;2023-07-31T14:37:36;4.10;;;2.60;;
79124;SDS011;68527;39.470;-0.376;2023-07-31T14:40:02;6.10;;;2.90;;
79124;SDS011;68527;39.470;-0.376;2023-07-31T14:42:28;4.90;;;2.60;;
79124;SDS011;68527;39.470;-0.376;2023-07-31T14:44:54;5.70;;;2.90;;
79124;SDS011;68527;39.470;-0.376;2023-07-31T14:47:19;3.60;;;2.80;;
79124;SDS011;68527;39.470;-0.376;2023-07-31T14:49:45;5.30;;;2.80;;
79124;SDS011;68527;39.470;-0.376;2023-07-31T14:52:11;8.10;;;3.20;;
79124;SDS011;68527;39.470;-0.376;2023-07-31T14:54:36;4.90;;;3.20;;
79124;SDS011;68527;39.470;-0.376;2023-07-31T14:57:02;6.60;;;3.20;;